sensor_id;sensor_type;location;lat;lon;timestamp;pressure;altitude;pressure_sealevel;temperature;humidity
12969;BME280;6549;53.128;8.182;2023-10-09T00:01:08;101759.47;;;13.87;100.00
12969;BME280;6549;53.128;8.182;2023-10-09T00:04:13;101738.16;;;13.87;100.00
12969;BME280;6549;53.128;8.182;2023-10-09T00:07:15;101743.25;;;13.82;100.00
12969;BME280;6549;53.128;8.182;2023-10-09T00:10:17;101727.44;;;13.75;100.00
12969;BME280;6549;53.128;8.182;2023-10-09T00:13:18;101713.19;;;13.73;100.00
12969;BME280;6549;53.128;8.182;2023-10-09T00:16:20;101704.09;;;13.69;100.00
12969;BME280;6549;53.128;8.182;2023-10-09T00:19:32;101691.81;;;13.63;100.00
12969;BME280;6549;53.128;8.182;2023-10-09T00:22:33;101694.19;;;13.65;100.00
12969;BME280;6549;53.128;8.182;2023-10-09T00:25:38;101687.47;;;13.62;100.00
12969;BME280;6549;53.128;8.182;2023-10-09T00:28:45;101684.28;;;13.60;100.00
12969;BME280;6549;53.128;8.182;2023-10-09T00:31:56;101689.44;;;13.58;100.00
12969;BME280;6549;53.128;8.182;2023-10-09T00:35:16;101681.53;;;13.60;100.00
12969;BME280;6549;53.128;8.182;2023-10-09T00:38:48;101676.38;;;13.55;100.00
12969;BME280;6549;53.128;8.182;2023-10-09T00:41:52;101667.25;;;13.51;100.00
12969;BME280;6549;53.128;8.182;2023-10-09T00:44:54;101664.06;;;13.45;100.00
12969;BME280;6549;53.128;8.182;2023-10-09T00:47:54;101658.94;;;13.44;100.00
12969;BME280;6549;53.128;8.182;2023-10-09T00:50:59;101659.28;;;13.35;100.00
12969;BME280;6549;53.128;8.182;2023-10-09T00:54:01;101644.66;;;13.31;100.00
12969;BME280;6549;53.128;8.182;2023-10-09T00:57:14;101629.63;;;13.29;100.00
12969;BME280;6549;53.128;8.182;2023-10-09T01:00:16;101611.91;;;13.30;100.00
12969;BME280;6549;53.128;8.182;2023-10-09T01:03:32;101595.75;;;13.32;100.00
12969;BME280;6549;53.128;8.182;2023-10-09T01:06:34;101589.34;;;13.21;100.00
12969;BME280;6549;53.128;8.182;2023-10-09T01:09:43;101576.34;;;13.18;100.00
12969;BME280;6549;53.128;8.182;2023-10-09T01:12:44;101558.16;;;13.13;100.00
12969;BME280;6549;53.128;8.182;2023-10-09T01:15:46;101569.56;;;13.12;100.00
12969;BME280;6549;53.128;8.182;2023-10-09T01:18:52;101568.41;;;13.13;100.00
12969;BME280;6549;53.128;8.182;2023-10-09T01:21:54;101567.22;;;13.14;100.00
12969;BME280;6549;53.128;8.182;2023-10-09T01:24:54;101576.69;;;13.13;100.00
12969;BME280;6549;53.128;8.182;2023-10-09T01:27:55;101580.63;;;13.15;100.00
12969;BME280;6549;53.128;8.182;2023-10-09T01:30:57;101570.81;;;13.21;100.00
12969;BME280;6549;53.128;8.182;2023-10-09T01:33:57;101589.34;;;13.17;100.00
12969;BME280;6549;53.128;8.182;2023-10-09T01:36:59;101569.66;;;13.22;100.00
12969;BME280;6549;53.128;8.182;2023-10-09T01:40:00;101531.81;;;13.23;100.00
12969;BME280;6549;53.128;8.182;2023-10-09T01:43:19;101527.09;;;13.27;100.00
12969;BME280;6549;53.128;8.182;2023-10-09T01:46:20;101555.47;;;13.24;100.00
12969;BME280;6549;53.128;8.182;2023-10-09T01:49:22;101558.63;;;13.26;100.00
12969;BME280;6549;53.128;8.182;2023-10-09T01:52:29;101570.47;;;13.23;100.00
12969;BME280;6549;53.128;8.182;2023-10-09T01:55:30;101571.66;;;13.25;100.00
12969;BME280;6549;53.128;8.182;2023-10-09T01:58:35;101549.97;;;13.27;100.00
12969;BME280;6549;53.128;8.182;2023-10-09T02:01:37;101540.50;;;13.25;100.00
12969;BME280;6549;53.128;8.182;2023-10-09T02:04:41;101540.09;;;13.23;100.00
12969;BME280;6549;53.128;8.182;2023-10-09T02:07:42;101532.22;;;13.25;100.00
12969;BME280;6549;53.128;8.182;2023-10-09T02:10:51;101540.91;;;13.27;100.00
12969;BME280;6549;53.128;8.182;2023-10-09T02:13:55;101521.63;;;13.34;100.00
12969;BME280;6549;53.128;8.182;2023-10-09T02:17:01;101509.44;;;13.42;100.00
12969;BME280;6549;53.128;8.182;2023-10-09T02:20:18;101505.50;;;13.43;100.00
12969;BME280;6549;53.128;8.182;2023-10-09T02:23:30;101506.28;;;13.40;100.00
12969;BME280;6549;53.128;8.182;2023-10-09T02:26:39;101499.16;;;13.39;100.00
12969;BME280;6549;53.128;8.182;2023-10-09T02:29:39;101482.22;;;13.40;100.00
12969;BME280;6549;53.128;8.182;2023-10-09T02:32:43;101458.94;;;13.38;100.00
12969;BME280;6549;53.128;8.182;2023-10-09T02:35:43;101443.09;;;13.28;100.00
12969;BME280;6549;53.128;8.182;2023-10-09T02:38:44;101432.84;;;13.21;100.00
12969;BME280;6549;53.128;8.182;2023-10-09T02:41:44;101433.56;;;13.15;100.00
12969;BME280;6549;53.128;8.182;2023-10-09T02:44:50;101425.28;;;13.11;100.00
12969;BME280;6549;53.128;8.182;2023-10-09T02:47:51;101433.09;;;13.02;100.00
12969;BME280;6549;53.128;8.182;2023-10-09T02:50:51;101437.81;;;13.01;100.00
12969;BME280;6549;53.128;8.182;2023-10-09T02:53:56;101439.00;;;13.00;100.00
12969;BME280;6549;53.128;8.182;2023-10-09T02:56:57;101428.34;;;12.95;100.00
12969;BME280;6549;53.128;8.182;2023-10-09T03:00:07;101424.41;;;12.96;100.00
12969;BME280;6549;53.128;8.182;2023-10-09T03:03:19;101440.97;;;12.96;100.00
12969;BME280;6549;53.128;8.182;2023-10-09T03:06:21;101421.66;;;13.00;100.00
12969;BME280;6549;53.128;8.182;2023-10-09T03:09:28;101426.03;;;13.04;100.00
12969;BME280;6549;53.128;8.182;2023-10-09T03:12:29;101420.91;;;13.06;100.00
12969;BME280;6549;53.128;8.182;2023-10-09T03:15:31;101431.94;;;13.10;100.00
12969;BME280;6549;53.128;8.182;2023-10-09T03:18:35;101431.59;;;13.12;100.00
12969;BME280;6549;53.128;8.182;2023-10-09T03:21:37;101432.81;;;13.14;100.00
12969;BME280;6549;53.128;8.182;2023-10-09T03:24:38;101431.66;;;13.19;100.00
12969;BME280;6549;53.128;8.182;2023-10-09T03:27:41;101428.09;;;13.18;100.00
12969;BME280;6549;53.128;8.182;2023-10-09T03:30:45;101422.97;;;13.17;100.00
12969;BME280;6549;53.128;8.182;2023-10-09T03:33:47;101418.22;;;13.17;100.00
12969;BME280;6549;53.128;8.182;2023-10-09T03:36:47;101420.19;;;13.17;100.00
12969;BME280;6549;53.128;8.182;2023-10-09T03:39:48;101412.72;;;13.17;100.00
12969;BME280;6549;53.128;8.182;2023-10-09T03:42:51;101442.69;;;13.19;100.00
12969;BME280;6549;53.128;8.182;2023-10-09T03:45:52;101402.84;;;13.16;100.00
12969;BME280;6549;53.128;8.182;2023-10-09T03:48:53;101409.16;;;13.17;100.00
12969;BME280;6549;53.128;8.182;2023-10-09T03:51:57;101406.38;;;13.13;100.00
12969;BME280;6549;53.128;8.182;2023-10-09T03:54:59;101407.56;;;13.12;100.00
12969;BME280;6549;53.128;8.182;2023-10-09T03:58:01;101410.75;;;13.14;100.00
12969;BME280;6549;53.128;8.182;2023-10-09T04:01:07;101419.03;;;13.21;100.00
12969;BME280;6549;53.128;8.182;2023-10-09T04:04:07;101434.44;;;13.22;100.00
12969;BME280;6549;53.128;8.182;2023-10-09T04:07:10;101425.75;;;13.24;100.00
12969;BME280;6549;53.128;8.182;2023-10-09T04:10:11;101419.06;;;13.25;100.00
12969;BME280;6549;53.128;8.182;2023-10-09T04:13:33;101428.94;;;13.29;100.00
12969;BME280;6549;53.128;8.182;2023-10-09T04:16:33;101442.34;;;13.27;100.00
12969;BME280;6549;53.128;8.182;2023-10-09T04:19:34;101420.28;;;13.31;100.00
12969;BME280;6549;53.128;8.182;2023-10-09T04:22:48;101414.34;;;13.32;100.00
12969;BME280;6549;53.128;8.182;2023-10-09T04:25:51;101399.34;;;13.30;100.00
12969;BME280;6549;53.128;8.182;2023-10-09T04:28:52;101398.94;;;13.28;100.00
12969;BME280;6549;53.128;8.182;2023-10-09T04:31:56;101393.84;;;13.30;100.00
12969;BME280;6549;53.128;8.182;2023-10-09T04:34:56;101385.94;;;13.28;100.00
12969;BME280;6549;53.128;8.182;2023-10-09T04:38:17;101389.09;;;13.27;100.00
12969;BME280;6549;53.128;8.182;2023-10-09T04:41:17;101395.81;;;13.29;100.00
12969;BME280;6549;53.128;8.182;2023-10-09T04:44:27;101448.63;;;13.24;100.00
12969;BME280;6549;53.128;8.182;2023-10-09T04:47:36;101409.97;;;13.24;100.00
12969;BME280;6549;53.128;8.182;2023-10-09T04:50:37;101402.50;;;13.25;100.00
12969;BME280;6549;53.128;8.182;2023-10-09T04:53:57;101393.41;;;13.24;100.00
12969;BME280;6549;53.128;8.182;2023-10-09T04:57:12;101392.63;;;13.24;100.00
12969;BME280;6549;53.128;8.182;2023-10-09T05:00:18;101385.56;;;13.26;100.00
12969;BME280;6549;53.128;8.182;2023-10-09T05:03:27;101383.16;;;13.25;100.00
12969;BME280;6549;53.128;8.182;2023-10-09T05:06:29;101380.81;;;13.27;100.00
12969;BME280;6549;53.128;8.182;2023-10-09T05:09:55;101371.34;;;13.28;100.00
12969;BME280;6549;53.128;8.182;2023-10-09T05:12:55;101363.47;;;13.30;100.00
12969;BME280;6549;53.128;8.182;2023-10-09T05:15:58;101370.59;;;13.31;100.00
12969;BME280;6549;53.128;8.182;2023-10-09T05:19:00;101364.28;;;13.30;100.00
12969;BME280;6549;53.128;8.182;2023-10-09T05:22:03;101361.91;;;13.32;100.00
12969;BME280;6549;53.128;8.182;2023-10-09T05:25:10;101347.72;;;13.30;100.00
12969;BME280;6549;53.128;8.182;2023-10-09T05:28:15;101346.13;;;13.33;100.00
12969;BME280;6549;53.128;8.182;2023-10-09T05:31:25;101339.06;;;13.35;100.00
12969;BME280;6549;53.128;8.182;2023-10-09T05:34:45;101350.09;;;13.39;100.00
12969;BME280;6549;53.128;8.182;2023-10-09T05:38:00;101341.41;;;13.37;100.00
12969;BME280;6549;53.128;8.182;2023-10-09T05:41:05;101334.72;;;13.38;100.00
12969;BME280;6549;53.128;8.182;2023-10-09T05:44:25;101337.47;;;13.38;100.00
12969;BME280;6549;53.128;8.182;2023-10-09T05:47:44;101348.50;;;13.38;100.00
12969;BME280;6549;53.128;8.182;2023-10-09T05:51:05;101346.56;;;13.42;100.00
12969;BME280;6549;53.128;8.182;2023-10-09T05:54:34;101349.72;;;13.44;100.00
12969;BME280;6549;53.128;8.182;2023-10-09T05:57:54;101353.28;;;13.44;100.00
12969;BME280;6549;53.128;8.182;2023-10-09T06:01:13;101360.78;;;13.44;100.00
12969;BME280;6549;53.128;8.182;2023-10-09T06:04:39;101354.84;;;13.45;100.00
12969;BME280;6549;53.128;8.182;2023-10-09T06:07:55;101339.88;;;13.50;100.00
12969;BME280;6549;53.128;8.182;2023-10-09T06:11:08;101353.66;;;13.43;100.00
12969;BME280;6549;53.128;8.182;2023-10-09T06:14:27;101360.78;;;13.44;100.00
12969;BME280;6549;53.128;8.182;2023-10-09T06:17:30;101354.06;;;13.45;100.00
12969;BME280;6549;53.128;8.182;2023-10-09T06:20:43;101355.25;;;13.51;100.00
12969;BME280;6549;53.128;8.182;2023-10-09T06:24:02;101356.84;;;13.59;100.00
12969;BME280;6549;53.128;8.182;2023-10-09T06:27:15;101365.94;;;13.60;100.00
12969;BME280;6549;53.128;8.182;2023-10-09T06:30:35;101360.03;;;13.65;100.00
12969;BME280;6549;53.128;8.182;2023-10-09T06:33:36;101352.53;;;13.69;100.00
12969;BME280;6549;53.128;8.182;2023-10-09T06:36:56;101371.09;;;13.72;100.00
12969;BME280;6549;53.128;8.182;2023-10-09T06:40:03;101358.84;;;13.69;100.00
12969;BME280;6549;53.128;8.182;2023-10-09T06:43:29;101372.28;;;13.71;100.00
12969;BME280;6549;53.128;8.182;2023-10-09T06:46:32;101369.09;;;13.72;100.00
12969;BME280;6549;53.128;8.182;2023-10-09T06:49:44;101378.19;;;13.76;100.00
12969;BME280;6549;53.128;8.182;2023-10-09T06:53:04;101390.03;;;13.77;100.00
12969;BME280;6549;53.128;8.182;2023-10-09T06:56:10;101392.81;;;13.80;100.00
12969;BME280;6549;53.128;8.182;2023-10-09T06:59:23;101393.59;;;13.81;100.00
12969;BME280;6549;53.128;8.182;2023-10-09T07:02:24;101396.75;;;13.83;100.00
12969;BME280;6549;53.128;8.182;2023-10-09T07:05:27;101400.72;;;13.89;100.00
12969;BME280;6549;53.128;8.182;2023-10-09T07:08:38;101393.63;;;13.91;100.00
12969;BME280;6549;53.128;8.182;2023-10-09T07:11:40;101395.59;;;13.94;100.00
12969;BME280;6549;53.128;8.182;2023-10-09T07:14:41;101390.84;;;13.95;100.00
12969;BME280;6549;53.128;8.182;2023-10-09T07:17:41;101380.22;;;14.01;100.00
12969;BME280;6549;53.128;8.182;2023-10-09T07:20:41;101375.47;;;14.05;100.00
12969;BME280;6549;53.128;8.182;2023-10-09T07:23:58;101375.47;;;14.08;100.00
12969;BME280;6549;53.128;8.182;2023-10-09T07:27:14;101373.91;;;14.11;100.00
12969;BME280;6549;53.128;8.182;2023-10-09T07:30:16;101381.81;;;14.16;100.00
12969;BME280;6549;53.128;8.182;2023-10-09T07:33:29;101387.31;;;14.19;100.00
12969;BME280;6549;53.128;8.182;2023-10-09T07:36:51;101385.75;;;14.22;100.00
12969;BME280;6549;53.128;8.182;2023-10-09T07:39:57;101389.28;;;14.26;100.00
12969;BME280;6549;53.128;8.182;2023-10-09T07:42:57;101397.56;;;14.29;100.00
12969;BME280;6549;53.128;8.182;2023-10-09T07:46:09;101393.69;;;14.37;100.00
12969;BME280;6549;53.128;8.182;2023-10-09T07:49:28;101401.97;;;14.41;100.00
12969;BME280;6549;53.128;8.182;2023-10-09T07:52:31;101396.84;;;14.47;100.00
12969;BME280;6549;53.128;8.182;2023-10-09T07:55:31;101391.28;;;14.50;100.00
12969;BME280;6549;53.128;8.182;2023-10-09T07:58:40;101398.41;;;14.58;100.00
12969;BME280;6549;53.128;8.182;2023-10-09T08:01:48;101398.38;;;14.62;100.00
12969;BME280;6549;53.128;8.182;2023-10-09T08:05:00;101402.34;;;14.64;100.00
12969;BME280;6549;53.128;8.182;2023-10-09T08:08:05;101403.91;;;14.69;100.00
12969;BME280;6549;53.128;8.182;2023-10-09T08:11:37;101394.44;;;14.73;100.00
12969;BME280;6549;53.128;8.182;2023-10-09T08:14:41;101399.94;;;14.80;100.00
12969;BME280;6549;53.128;8.182;2023-10-09T08:17:47;101391.25;;;14.82;100.00
12969;BME280;6549;53.128;8.182;2023-10-09T08:20:54;101396.78;;;14.86;100.00
12969;BME280;6549;53.128;8.182;2023-10-09T08:23:57;101399.53;;;14.86;100.00
12969;BME280;6549;53.128;8.182;2023-10-09T08:27:04;101402.69;;;14.88;100.00
12969;BME280;6549;53.128;8.182;2023-10-09T08:30:25;101402.69;;;14.88;100.00
12969;BME280;6549;53.128;8.182;2023-10-09T08:33:25;101403.47;;;14.88;100.00
12969;BME280;6549;53.128;8.182;2023-10-09T08:36:26;101399.13;;;14.91;100.00
12969;BME280;6549;53.128;8.182;2023-10-09T08:39:36;101401.09;;;14.94;100.00
12969;BME280;6549;53.128;8.182;2023-10-09T08:42:36;101408.19;;;14.98;100.00
12969;BME280;6549;53.128;8.182;2023-10-09T08:45:38;101407.00;;;15.03;100.00
12969;BME280;6549;53.128;8.182;2023-10-09T08:48:42;101399.88;;;15.05;100.00
12969;BME280;6549;53.128;8.182;2023-10-09T08:51:42;101405.41;;;15.09;100.00
12969;BME280;6549;53.128;8.182;2023-10-09T08:54:43;101405.41;;;15.12;100.00
12969;BME280;6549;53.128;8.182;2023-10-09T08:57:47;101399.44;;;15.17;100.00
12969;BME280;6549;53.128;8.182;2023-10-09T09:00:48;101406.56;;;15.22;100.00
12969;BME280;6549;53.128;8.182;2023-10-09T09:03:49;101403.75;;;15.25;100.00
12969;BME280;6549;53.128;8.182;2023-10-09T09:06:50;101397.03;;;15.30;100.00
12969;BME280;6549;53.128;8.182;2023-10-09T09:09:58;101402.50;;;15.37;100.00
12969;BME280;6549;53.128;8.182;2023-10-09T09:13:03;101399.34;;;15.39;100.00
12969;BME280;6549;53.128;8.182;2023-10-09T09:16:04;101402.91;;;15.39;100.00
12969;BME280;6549;53.128;8.182;2023-10-09T09:19:05;101404.88;;;15.42;100.00
12969;BME280;6549;53.128;8.182;2023-10-09T09:22:08;101403.69;;;15.43;100.00
12969;BME280;6549;53.128;8.182;2023-10-09T09:25:13;101392.19;;;15.45;100.00
12969;BME280;6549;53.128;8.182;2023-10-09T09:28:14;101394.97;;;15.48;100.00
12969;BME280;6549;53.128;8.182;2023-10-09T09:31:21;101392.97;;;15.45;100.00
12969;BME280;6549;53.128;8.182;2023-10-09T09:34:22;101395.75;;;15.45;100.00
12969;BME280;6549;53.128;8.182;2023-10-09T09:37:29;101387.44;;;15.45;100.00
12969;BME280;6549;53.128;8.182;2023-10-09T09:40:50;101389.47;;;15.38;100.00
12969;BME280;6549;53.128;8.182;2023-10-09T09:43:57;101392.97;;;15.45;100.00
12969;BME280;6549;53.128;8.182;2023-10-09T09:47:00;101385.50;;;15.42;100.00
12969;BME280;6549;53.128;8.182;2023-10-09T09:50:01;101405.28;;;15.44;100.00
12969;BME280;6549;53.128;8.182;2023-10-09T09:53:13;101401.28;;;15.49;100.00
12969;BME280;6549;53.128;8.182;2023-10-09T09:56:17;101408.38;;;15.50;100.00
12969;BME280;6549;53.128;8.182;2023-10-09T09:59:25;101400.50;;;15.52;100.00
12969;BME280;6549;53.128;8.182;2023-10-09T10:02:31;101416.31;;;15.55;100.00
12969;BME280;6549;53.128;8.182;2023-10-09T10:05:36;101425.81;;;15.57;100.00
12969;BME280;6549;53.128;8.182;2023-10-09T10:08:37;101429.78;;;15.56;100.00
12969;BME280;6549;53.128;8.182;2023-10-09T10:11:46;101423.03;;;15.61;100.00
12969;BME280;6549;53.128;8.182;2023-10-09T10:14:58;101425.00;;;15.60;100.00
12969;BME280;6549;53.128;8.182;2023-10-09T10:27:30;101431.25;;;15.71;100.00
12969;BME280;6549;53.128;8.182;2023-10-09T10:30:31;101430.88;;;15.73;100.00
12969;BME280;6549;53.128;8.182;2023-10-09T10:36:56;101426.50;;;15.79;100.00
12969;BME280;6549;53.128;8.182;2023-10-09T10:39:59;101431.59;;;15.81;100.00
12969;BME280;6549;53.128;8.182;2023-10-09T10:43:00;101440.72;;;15.81;100.00
12969;BME280;6549;53.128;8.182;2023-10-09T10:46:09;101442.69;;;15.81;100.00
12969;BME280;6549;53.128;8.182;2023-10-09T10:49:15;101451.41;;;15.83;100.00
12969;BME280;6549;53.128;8.182;2023-10-09T10:52:25;101458.91;;;15.86;100.00
12969;BME280;6549;53.128;8.182;2023-10-09T10:55:55;101456.53;;;15.88;100.00
12969;BME280;6549;53.128;8.182;2023-10-09T10:59:18;101454.13;;;15.90;100.00
12969;BME280;6549;53.128;8.182;2023-10-09T11:02:25;101456.88;;;15.93;100.00
12969;BME280;6549;53.128;8.182;2023-10-09T11:05:28;101463.22;;;15.94;100.00
12969;BME280;6549;53.128;8.182;2023-10-09T11:08:33;101467.53;;;15.98;100.00
12969;BME280;6549;53.128;8.182;2023-10-09T11:11:33;101470.31;;;15.98;100.00
12969;BME280;6549;53.128;8.182;2023-10-09T11:14:47;101469.53;;;16.01;100.00
12969;BME280;6549;53.128;8.182;2023-10-09T11:18:09;101466.72;;;16.05;100.00
12969;BME280;6549;53.128;8.182;2023-10-09T11:21:19;101473.41;;;16.07;100.00
12969;BME280;6549;53.128;8.182;2023-10-09T11:24:20;101464.72;;;16.09;100.00
12969;BME280;6549;53.128;8.182;2023-10-09T11:27:26;101477.38;;;16.10;100.00
12969;BME280;6549;53.128;8.182;2023-10-09T11:30:32;101476.16;;;16.14;100.00
12969;BME280;6549;53.128;8.182;2023-10-09T11:33:47;101465.81;;;16.22;100.00
12969;BME280;6549;53.128;8.182;2023-10-09T11:36:48;101468.16;;;16.27;100.00
12969;BME280;6549;53.128;8.182;2023-10-09T11:39:59;101470.88;;;16.34;100.00
12969;BME280;6549;53.128;8.182;2023-10-09T11:43:01;101472.84;;;16.37;100.00
12969;BME280;6549;53.128;8.182;2023-10-09T11:46:09;101473.59;;;16.41;100.00
12969;BME280;6549;53.128;8.182;2023-10-09T11:49:33;101471.59;;;16.45;100.00
12969;BME280;6549;53.128;8.182;2023-10-09T11:52:58;101471.91;;;16.51;100.00
12969;BME280;6549;53.128;8.182;2023-10-09T11:56:09;101478.28;;;16.48;100.00
12969;BME280;6549;53.128;8.182;2023-10-09T11:59:14;101472.38;;;16.46;100.00
12969;BME280;6549;53.128;8.182;2023-10-09T12:02:17;101473.94;;;16.47;100.00
12969;BME280;6549;53.128;8.182;2023-10-09T12:05:17;101477.06;;;16.52;100.00
12969;BME280;6549;53.128;8.182;2023-10-09T12:08:17;101469.94;;;16.55;100.00
12969;BME280;6549;53.128;8.182;2023-10-09T12:11:22;101467.50;;;16.60;100.00
12969;BME280;6549;53.128;8.182;2023-10-09T12:14:22;101463.03;;;16.74;100.00
12969;BME280;6549;53.128;8.182;2023-10-09T12:17:24;101467.28;;;16.89;100.00
12969;BME280;6549;53.128;8.182;2023-10-09T12:20:26;101463.97;;;17.01;100.00
12969;BME280;6549;53.128;8.182;2023-10-09T12:23:32;101462.63;;;17.16;100.00
12969;BME280;6549;53.128;8.182;2023-10-09T12:26:35;101459.44;;;17.18;100.00
12969;BME280;6549;53.128;8.182;2023-10-09T12:29:38;101462.28;;;17.11;100.00
12969;BME280;6549;53.128;8.182;2023-10-09T12:32:44;101455.66;;;17.01;100.00
12969;BME280;6549;53.128;8.182;2023-10-09T12:35:45;101460.50;;;16.93;100.00
12969;BME280;6549;53.128;8.182;2023-10-09T12:38:49;101456.63;;;16.84;100.00
12969;BME280;6549;53.128;8.182;2023-10-09T12:41:59;101458.25;;;16.78;100.00
12969;BME280;6549;53.128;8.182;2023-10-09T12:45:06;101446.38;;;16.74;100.00
12969;BME280;6549;53.128;8.182;2023-10-09T12:48:10;101462.28;;;16.70;100.00
12969;BME280;6549;53.128;8.182;2023-10-09T12:51:10;101457.56;;;16.67;100.00
12969;BME280;6549;53.128;8.182;2023-10-09T12:54:16;101463.16;;;16.63;100.00
12969;BME280;6549;53.128;8.182;2023-10-09T12:57:16;101472.66;;;16.62;100.00
12969;BME280;6549;53.128;8.182;2023-10-09T13:00:16;101467.50;;;16.60;100.00
12969;BME280;6549;53.128;8.182;2023-10-09T13:03:25;101466.38;;;16.58;100.00
12969;BME280;6549;53.128;8.182;2023-10-09T13:06:28;101457.63;;;16.56;100.00
12969;BME280;6549;53.128;8.182;2023-10-09T13:09:29;101465.56;;;16.54;100.00
12969;BME280;6549;53.128;8.182;2023-10-09T13:12:36;101469.56;;;16.49;100.00
12969;BME280;6549;53.128;8.182;2023-10-09T13:15:41;101459.69;;;16.45;100.00
12969;BME280;6549;53.128;8.182;2023-10-09T13:18:42;101461.69;;;16.44;100.00
12969;BME280;6549;53.128;8.182;2023-10-09T13:21:50;101464.47;;;16.44;100.00
12969;BME280;6549;53.128;8.182;2023-10-09T13:24:50;101473.97;;;16.43;100.00
12969;BME280;6549;53.128;8.182;2023-10-09T13:27:52;101469.25;;;16.40;100.00
12969;BME280;6549;53.128;8.182;2023-10-09T13:30:53;101470.44;;;16.39;100.00
12969;BME280;6549;53.128;8.182;2023-10-09T13:33:54;101474.41;;;16.38;100.00
12969;BME280;6549;53.128;8.182;2023-10-09T13:36:55;101461.75;;;16.37;100.00
12969;BME280;6549;53.128;8.182;2023-10-09T13:39:58;101470.44;;;16.39;100.00
12969;BME280;6549;53.128;8.182;2023-10-09T13:42:59;101477.56;;;16.40;100.00
12969;BME280;6549;53.128;8.182;2023-10-09T13:45:59;101474.41;;;16.42;100.00
12969;BME280;6549;53.128;8.182;2023-10-09T13:49:03;101476.38;;;16.41;100.00
12969;BME280;6549;53.128;8.182;2023-10-09T13:52:09;101477.56;;;16.40;100.00
12969;BME280;6549;53.128;8.182;2023-10-09T13:55:09;101477.53;;;16.44;100.00
12969;BME280;6549;53.128;8.182;2023-10-09T13:58:15;101485.06;;;16.43;100.00
12969;BME280;6549;53.128;8.182;2023-10-09T14:01:21;101484.69;;;16.41;100.00
12969;BME280;6549;53.128;8.182;2023-10-09T14:04:27;101480.34;;;16.40;100.00
12969;BME280;6549;53.128;8.182;2023-10-09T14:07:27;101489.50;;;16.37;100.00
12969;BME280;6549;53.128;8.182;2023-10-09T14:10:27;101492.25;;;16.37;100.00
12969;BME280;6549;53.128;8.182;2023-10-09T14:13:30;101485.56;;;16.31;100.00
12969;BME280;6549;53.128;8.182;2023-10-09T14:16:32;101484.75;;;16.31;100.00
12969;BME280;6549;53.128;8.182;2023-10-09T14:19:33;101483.22;;;16.26;100.00
12969;BME280;6549;53.128;8.182;2023-10-09T14:22:33;101488.75;;;16.26;100.00
12969;BME280;6549;53.128;8.182;2023-10-09T14:25:38;101494.31;;;16.26;100.00
12969;BME280;6549;53.128;8.182;2023-10-09T14:28:40;101480.03;;;16.28;100.00
12969;BME280;6549;53.128;8.182;2023-10-09T14:31:43;101482.00;;;16.31;100.00
12969;BME280;6549;53.128;8.182;2023-10-09T14:34:49;101480.41;;;16.30;100.00
12969;BME280;6549;53.128;8.182;2023-10-09T14:37:54;101476.84;;;16.29;100.00
12969;BME280;6549;53.128;8.182;2023-10-09T14:40:55;101480.84;;;16.28;100.00
12969;BME280;6549;53.128;8.182;2023-10-09T14:43:59;101485.63;;;16.24;100.00
12969;BME280;6549;53.128;8.182;2023-10-09T14:47:00;101489.59;;;16.23;100.00
12969;BME280;6549;53.128;8.182;2023-10-09T14:50:02;101491.97;;;16.21;100.00
12969;BME280;6549;53.128;8.182;2023-10-09T14:53:08;101501.47;;;16.20;100.00
12969;BME280;6549;53.128;8.182;2023-10-09T14:56:09;101498.28;;;16.22;100.00
12969;BME280;6549;53.128;8.182;2023-10-09T14:59:09;101499.09;;;16.22;100.00
12969;BME280;6549;53.128;8.182;2023-10-09T15:02:11;101513.38;;;16.17;100.00
12969;BME280;6549;53.128;8.182;2023-10-09T15:05:12;101507.00;;;16.20;100.00
12969;BME280;6549;53.128;8.182;2023-10-09T15:08:13;101501.06;;;16.22;100.00
12969;BME280;6549;53.128;8.182;2023-10-09T15:11:14;101505.03;;;16.24;100.00
12969;BME280;6549;53.128;8.182;2023-10-09T15:14:15;101499.84;;;16.26;100.00
12969;BME280;6549;53.128;8.182;2023-10-09T15:17:16;101502.25;;;16.24;100.00
12969;BME280;6549;53.128;8.182;2023-10-09T15:20:16;101500.66;;;16.23;100.00
12969;BME280;6549;53.128;8.182;2023-10-09T15:23:17;101495.13;;;16.23;100.00
12969;BME280;6549;53.128;8.182;2023-10-09T15:26:20;101494.72;;;16.21;100.00
12969;BME280;6549;53.128;8.182;2023-10-09T15:29:21;101503.88;;;16.18;100.00
12969;BME280;6549;53.128;8.182;2023-10-09T15:32:28;101509.44;;;16.14;100.00
12969;BME280;6549;53.128;8.182;2023-10-09T15:35:28;101501.13;;;16.14;100.00
12969;BME280;6549;53.128;8.182;2023-10-09T15:38:29;101509.44;;;16.14;100.00
12969;BME280;6549;53.128;8.182;2023-10-09T15:41:29;101505.88;;;16.14;100.00
12969;BME280;6549;53.128;8.182;2023-10-09T15:44:30;101524.50;;;16.13;100.00
12969;BME280;6549;53.128;8.182;2023-10-09T15:47:33;101523.72;;;16.09;100.00
12969;BME280;6549;53.128;8.182;2023-10-09T15:50:36;101530.06;;;16.10;100.00
12969;BME280;6549;53.128;8.182;2023-10-09T15:53:36;101530.09;;;16.06;100.00
12969;BME280;6549;53.128;8.182;2023-10-09T15:56:38;101532.88;;;16.06;100.00
12969;BME280;6549;53.128;8.182;2023-10-09T15:59:42;101531.66;;;16.04;100.00
12969;BME280;6549;53.128;8.182;2023-10-09T16:02:42;101530.88;;;16.03;100.00
12969;BME280;6549;53.128;8.182;2023-10-09T16:05:43;101538.81;;;16.01;100.00
12969;BME280;6549;53.128;8.182;2023-10-09T16:08:44;101541.16;;;16.03;100.00
12969;BME280;6549;53.128;8.182;2023-10-09T16:11:45;101537.25;;;16.00;100.00
12969;BME280;6549;53.128;8.182;2023-10-09T16:14:45;101534.84;;;15.99;100.00
12969;BME280;6549;53.128;8.182;2023-10-09T16:17:46;101545.94;;;15.99;100.00
12969;BME280;6549;53.128;8.182;2023-10-09T16:20:47;101546.34;;;15.94;100.00
12969;BME280;6549;53.128;8.182;2023-10-09T16:23:49;101547.56;;;15.93;100.00